Time;durP1;ratioP1;P1;durP2;ratioP2;P2;SDS_P1;SDS_P2;PMS_P1;PMS_P2;Temp;Humidity;BMP_temperature;BMP_pressure;BME280_temperature;BME280_humidity;BME280_pressure;Samples;Min_cycle;Max_cycle;Signal;HPM_P1;HPM_P2
2022/06/12 00:00:15;;;;;;;9.30;2.60;;;9.60;99.90;;;;;;5081352;28;20472;-85
2022/06/12 00:02:42;;;;;;;11.77;2.92;;;9.70;99.90;;;;;;5063437;28;20076;-84
2022/06/12 00:05:09;;;;;;;11.77;2.70;;;9.70;99.90;;;;;;5062899;28;20107;-85
2022/06/12 00:07:35;;;;;;;10.55;3.17;;;9.70;99.90;;;;;;5080481;28;20051;-85
2022/06/12 00:10:00;;;;;;;10.55;3.08;;;9.60;99.90;;;;;;5081422;28;20052;-85
2022/06/12 00:12:26;;;;;;;14.18;3.72;;;9.60;99.90;;;;;;5081384;28;20504;-84
2022/06/12 00:14:52;;;;;;;14.30;2.65;;;9.60;99.90;;;;;;5081394;28;20465;-85
2022/06/12 00:17:18;;;;;;;18.42;4.15;;;9.60;99.90;;;;;;5081665;28;20385;-85
2022/06/12 00:19:44;;;;;;;13.90;2.42;;;9.60;99.90;;;;;;5081515;28;20048;-85
2022/06/12 00:22:11;;;;;;;10.63;2.65;;;9.50;99.90;;;;;;5095578;28;20105;-85
2022/06/12 00:24:37;;;;;;;9.88;2.78;;;9.50;99.90;;;;;;5101809;28;20044;-84
2022/06/12 00:27:03;;;;;;;11.00;3.20;;;9.40;99.90;;;;;;5101993;28;20051;-85
2022/06/12 00:29:34;;;;;;;15.73;3.25;;;9.40;99.90;;;;;;5101028;28;20055;-85
2022/06/12 00:32:01;;;;;;;8.90;3.55;;;9.40;99.90;;;;;;5101345;28;20048;-85
2022/06/12 00:34:31;;;;;;;18.27;3.20;;;9.40;99.90;;;;;;5082933;28;20058;-85
2022/06/12 00:36:58;;;;;;;15.27;3.38;;;9.40;99.90;;;;;;5101224;28;20044;-85
2022/06/12 00:39:24;;;;;;;18.38;4.60;;;9.40;99.90;;;;;;5101337;28;20435;-85
2022/06/12 00:41:53;;;;;;;23.75;5.10;;;9.40;99.90;;;;;;5083153;28;20097;-84
2022/06/12 00:44:24;;;;;;;15.32;4.00;;;9.40;99.90;;;;;;5101095;28;20105;-84
2022/06/12 00:46:57;;;;;;;12.27;3.83;;;9.30;99.90;;;;;;5100858;28;20059;-84
2022/06/12 00:49:46;;;;;;;10.13;3.28;;;9.30;99.90;;;;;;5100850;28;20048;-84
2022/06/12 00:52:18;;;;;;;14.40;3.75;;;9.20;99.90;;;;;;5101309;28;20040;-85
2022/06/12 00:54:48;;;;;;;10.95;2.83;;;9.30;99.90;;;;;;5101322;28;20044;-85
2022/06/12 00:57:14;;;;;;;14.20;3.00;;;9.20;99.90;;;;;;5101859;28;20083;-85
2022/06/12 00:59:44;;;;;;;11.52;4.03;;;9.20;99.90;;;;;;5101487;28;20055;-85
2022/06/12 01:02:14;;;;;;;13.88;3.30;;;9.20;99.90;;;;;;5101760;28;20048;-85
2022/06/12 01:07:32;;;;;;;15.63;3.75;;;9.10;99.90;;;;;;5101061;28;20044;-85
2022/06/12 01:10:01;;;;;;;16.42;3.67;;;9.10;99.90;;;;;;5083032;28;20048;-85
2022/06/12 01:12:33;;;;;;;18.15;4.20;;;9.10;99.90;;;;;;5101236;28;20583;-85
2022/06/12 01:15:06;;;;;;;14.90;3.72;;;9.10;99.90;;;;;;5100795;28;20079;-85
2022/06/12 01:17:33;;;;;;;11.23;3.70;;;9.00;99.90;;;;;;5100722;28;20059;-85
2022/06/12 01:20:03;;;;;;;10.40;2.88;;;9.00;99.90;;;;;;5100487;28;20488;-85
2022/06/12 01:22:50;;;;;;;16.38;4.70;;;9.00;99.90;;;;;;5100324;28;20102;-84
2022/06/12 01:26:07;;;;;;;20.00;3.78;;;9.10;99.90;;;;;;5099813;28;20047;-85
2022/06/12 01:28:55;;;;;;;10.27;3.55;;;9.10;99.90;;;;;;5054811;28;20086;-85
2022/06/12 01:31:35;;;;;;;15.25;4.90;;;9.10;99.90;;;;;;5099995;28;20048;-85
2022/06/12 01:34:15;;;;;;;13.48;3.28;;;9.00;99.90;;;;;;5099149;28;20120;-85
2022/06/12 01:36:48;;;;;;;16.67;4.40;;;9.10;99.90;;;;;;5098828;28;20357;-85
2022/06/12 01:39:29;;;;;;;11.80;3.40;;;9.10;99.90;;;;;;5097793;28;20044;-85
2022/06/12 01:42:30;;;;;;;15.20;3.97;;;9.10;99.90;;;;;;5097255;28;20553;-85
2022/06/12 01:45:01;;;;;;;18.70;4.30;;;9.10;99.90;;;;;;5097573;28;20085;-85
2022/06/12 01:47:46;;;;;;;15.23;4.28;;;9.20;99.90;;;;;;5079855;28;20509;-85
2022/06/12 01:50:27;;;;;;;11.20;3.50;;;9.20;99.90;;;;;;5098274;28;20100;-86
2022/06/12 01:53:06;;;;;;;16.42;4.70;;;9.20;99.90;;;;;;5082643;28;20028;-85
2022/06/12 01:56:07;;;;;;;19.83;5.35;;;9.20;99.90;;;;;;5100572;28;20097;-85
2022/06/12 01:58:45;;;;;;;17.83;4.80;;;9.10;99.90;;;;;;5067340;28;20048;-84
2022/06/12 02:01:30;;;;;;;14.57;4.07;;;9.10;99.90;;;;;;5100243;28;20140;-84
2022/06/12 02:04:01;;;;;;;16.00;3.88;;;9.10;99.90;;;;;;5100186;28;20040;-85
2022/06/12 02:06:46;;;;;;;12.65;4.13;;;9.20;99.90;;;;;;5099826;28;20056;-85
2022/06/12 02:09:19;;;;;;;22.23;5.20;;;9.20;99.90;;;;;;5082894;28;20055;-86
2022/06/12 02:14:47;;;;;;;13.23;4.63;;;9.20;99.90;;;;;;5061695;28;20056;-85
2022/06/12 02:17:17;;;;;;;18.42;4.60;;;9.20;99.90;;;;;;5079542;28;20435;-86
2022/06/12 02:19:44;;;;;;;12.73;4.50;;;9.30;99.90;;;;;;5060954;28;20496;-84
2022/06/12 02:22:17;;;;;;;17.27;4.38;;;9.30;99.90;;;;;;5061577;28;20033;-84
2022/06/12 02:24:51;;;;;;;14.40;4.38;;;9.30;99.90;;;;;;5079518;28;20104;-84
2022/06/12 02:27:33;;;;;;;8.82;3.70;;;9.30;99.90;;;;;;5079538;28;20041;-85
2022/06/12 02:30:15;;;;;;;10.85;4.03;;;9.30;99.90;;;;;;5078997;28;20044;-85
2022/06/12 02:32:45;;;;;;;15.43;3.92;;;9.20;99.90;;;;;;5079369;28;20051;-85
2022/06/12 02:35:17;;;;;;;21.38;5.53;;;9.30;99.90;;;;;;5078879;28;20542;-85
2022/06/12 02:37:56;;;;;;;17.33;4.22;;;9.20;99.90;;;;;;5061642;28;20047;-85
2022/06/12 02:40:35;;;;;;;9.48;4.22;;;9.20;99.90;;;;;;5079275;28;20059;-84
2022/06/12 02:43:07;;;;;;;21.35;5.43;;;9.20;99.90;;;;;;5078929;28;20110;-84
2022/06/12 02:45:49;;;;;;;17.08;3.88;;;9.30;99.90;;;;;;5079180;28;20056;-85
2022/06/12 02:48:15;;;;;;;16.70;3.60;;;9.30;99.90;;;;;;5079218;28;20055;-85
2022/06/12 02:50:49;;;;;;;12.70;3.63;;;9.30;99.90;;;;;;5079033;28;20100;-85
2022/06/12 02:53:37;;;;;;;15.50;4.45;;;9.30;99.90;;;;;;5079278;28;20381;-85
2022/06/12 02:56:18;;;;;;;13.60;3.92;;;9.30;99.90;;;;;;5079509;28;20041;-85
2022/06/12 02:59:01;;;;;;;19.25;4.68;;;9.30;99.90;;;;;;5080101;28;20097;-85
2022/06/12 03:01:39;;;;;;;14.27;3.78;;;9.30;99.90;;;;;;5079415;28;20108;-85
2022/06/12 03:04:12;;;;;;;12.25;4.45;;;9.30;99.90;;;;;;5061333;28;20389;-85
2022/06/12 03:06:40;;;;;;;12.13;3.33;;;9.30;99.90;;;;;;5078843;28;20045;-84
2022/06/12 03:09:07;;;;;;;10.80;3.95;;;9.30;99.90;;;;;;5061497;28;20048;-86
2022/06/12 03:11:36;;;;;;;11.25;4.20;;;9.30;99.90;;;;;;5061102;28;20098;-86
2022/06/12 03:14:08;;;;;;;10.70;3.72;;;9.30;99.90;;;;;;5061279;28;20040;-85
2022/06/12 03:16:37;;;;;;;20.35;4.28;;;9.30;99.90;;;;;;5079047;28;20051;-85
2022/06/12 03:19:13;;;;;;;18.85;4.47;;;9.30;99.90;;;;;;5079030;28;20063;-85
2022/06/12 03:21:57;;;;;;;14.70;4.10;;;9.30;99.90;;;;;;5079801;28;20374;-85
2022/06/12 03:24:34;;;;;;;18.70;4.22;;;9.30;99.90;;;;;;5061261;28;20127;-85
2022/06/12 03:27:18;;;;;;;17.58;3.70;;;9.30;99.90;;;;;;5079164;28;20072;-84
2022/06/12 03:30:04;;;;;;;15.20;4.65;;;9.20;99.90;;;;;;5078904;28;20049;-84
2022/06/12 03:32:44;;;;;;;15.40;4.13;;;9.30;99.90;;;;;;5079110;28;20048;-85
2022/06/12 03:35:28;;;;;;;11.77;3.83;;;9.30;99.90;;;;;;5079379;28;20125;-85
2022/06/12 03:38:11;;;;;;;14.18;3.40;;;9.30;99.90;;;;;;5079258;28;20075;-86
2022/06/12 03:41:04;;;;;;;19.17;4.35;;;9.40;99.90;;;;;;5079186;28;20048;-86
2022/06/12 03:43:57;;;;;;;8.48;4.05;;;9.40;99.90;;;;;;5064483;28;20052;-86
2022/06/12 03:46:45;;;;;;;11.52;3.22;;;9.40;99.90;;;;;;5082424;28;20060;-85
2022/06/12 03:49:10;;;;;;;10.38;3.28;;;9.40;99.90;;;;;;5082336;28;20174;-85
2022/06/12 03:51:51;;;;;;;20.92;4.28;;;9.50;99.90;;;;;;5082307;28;20084;-85
2022/06/12 03:54:25;;;;;;;17.67;3.80;;;9.60;99.90;;;;;;5076409;28;20056;-85
2022/06/12 03:59:46;;;;;;;11.13;2.60;;;9.70;99.90;;;;;;5076617;28;20083;-85
2022/06/12 04:02:16;;;;;;;14.05;3.00;;;9.70;99.90;;;;;;5076143;28;20048;-85
2022/06/12 04:04:45;;;;;;;9.65;3.05;;;9.80;99.90;;;;;;5057777;28;20492;-85
2022/06/12 04:07:13;;;;;;;13.15;3.40;;;9.90;99.90;;;;;;5076007;28;20056;-86
2022/06/12 04:09:43;;;;;;;13.57;4.30;;;10.00;99.90;;;;;;5076472;28;20052;-85
2022/06/12 04:12:16;;;;;;;9.43;2.60;;;10.10;99.90;;;;;;5075895;28;20498;-86
2022/06/12 04:14:47;;;;;;;12.85;3.75;;;10.20;99.90;;;;;;5076364;28;20451;-85
2022/06/12 04:17:13;;;;;;;12.48;3.42;;;10.20;99.90;;;;;;5076384;28;20393;-86
2022/06/12 04:22:32;;;;;;;12.52;3.47;;;10.50;99.90;;;;;;5076154;28;20040;-85
2022/06/12 04:25:14;;;;;;;11.32;3.00;;;10.60;99.90;;;;;;5076137;28;20381;-85
2022/06/12 04:27:42;;;;;;;13.18;3.33;;;10.80;99.90;;;;;;5075964;28;20052;-85
2022/06/12 04:30:22;;;;;;;14.38;4.28;;;10.90;99.90;;;;;;5075756;28;20056;-85
2022/06/12 04:32:49;;;;;;;14.43;3.35;;;11.10;99.90;;;;;;5075897;28;20063;-85
2022/06/12 04:35:15;;;;;;;11.70;2.50;;;11.90;99.90;;;;;;5075876;28;20115;-85
2022/06/12 04:37:42;;;;;;;11.60;2.53;;;11.50;99.90;;;;;;5076049;28;20102;-85
2022/06/12 04:40:26;;;;;;;17.48;4.07;;;11.50;99.90;;;;;;5075683;28;20048;-85
2022/06/12 04:42:53;;;;;;;10.45;3.03;;;11.60;99.90;;;;;;5059904;28;20396;-84
2022/06/12 04:45:19;;;;;;;10.80;2.65;;;11.70;99.90;;;;;;5075638;28;20123;-84
2022/06/12 04:47:44;;;;;;;11.98;2.70;;;11.80;99.90;;;;;;5075519;28;20455;-85
2022/06/12 04:50:15;;;;;;;13.75;4.13;;;12.30;99.90;;;;;;5075531;28;20083;-85
2022/06/12 04:52:40;;;;;;;14.52;3.10;;;13.00;99.90;;;;;;5074648;28;20057;-85
2022/06/12 04:55:07;;;;;;;11.35;2.50;;;13.90;99.90;;;;;;5075258;28;20068;-85
2022/06/12 04:57:32;;;;;;;13.75;2.85;;;14.70;99.90;;;;;;5075045;28;20059;-86
2022/06/12 04:59:58;;;;;;;8.05;2.58;;;15.60;99.90;;;;;;5075310;28;20036;-85
2022/06/12 05:02:24;;;;;;;8.00;2.10;;;15.80;99.90;;;;;;5075523;28;20524;-85
2022/06/12 05:04:50;;;;;;;11.25;2.03;;;16.30;99.90;;;;;;5074720;28;20044;-84
2022/06/12 05:07:16;;;;;;;10.02;2.00;;;16.80;99.90;;;;;;5075174;28;20057;-85
2022/06/12 05:09:43;;;;;;;10.73;2.00;;;17.30;99.90;;;;;;5075206;28;20044;-86
2022/06/12 05:12:12;;;;;;;11.90;2.80;;;17.70;99.90;;;;;;5074731;28;20072;-85
2022/06/12 05:14:38;;;;;;;8.75;2.13;;;18.10;99.90;;;;;;5057007;28;20056;-86
2022/06/12 05:17:11;;;;;;;9.20;2.63;;;18.30;99.90;;;;;;5074909;28;20042;-85
2022/06/12 05:19:39;;;;;;;7.88;2.30;;;18.60;97.30;;;;;;5074881;28;20053;-85
2022/06/12 05:22:07;;;;;;;7.93;2.30;;;19.10;88.60;;;;;;5074808;28;20049;-86
2022/06/12 05:24:35;;;;;;;13.32;2.65;;;19.10;78.10;;;;;;5074855;28;20102;-85
2022/06/12 05:27:05;;;;;;;13.70;2.95;;;19.50;72.00;;;;;;5056786;28;20037;-85
2022/06/12 05:29:35;;;;;;;10.07;2.35;;;19.50;72.60;;;;;;5075191;28;20080;-85
2022/06/12 05:32:01;;;;;;;11.27;2.60;;;20.00;64.70;;;;;;5074831;28;20068;-85
2022/06/12 05:34:28;;;;;;;12.45;2.30;;;20.00;58.00;;;;;;5056561;28;20131;-85
2022/06/12 05:36:55;;;;;;;15.00;2.70;;;20.30;55.90;;;;;;5056680;28;20044;-86
2022/06/12 05:39:22;;;;;;;9.70;2.53;;;20.50;50.30;;;;;;5074502;28;20126;-85
2022/06/12 05:41:49;;;;;;;9.55;2.45;;;20.70;45.20;;;;;;5074492;28;20049;-85
2022/06/12 05:44:16;;;;;;;9.60;2.35;;;21.60;42.00;;;;;;5074562;28;20049;-85
2022/06/12 05:46:43;;;;;;;9.35;2.45;;;20.90;42.20;;;;;;5056332;28;20037;-85
2022/06/12 05:49:09;;;;;;;12.55;3.25;;;21.00;36.00;;;;;;5074528;28;20343;-85
2022/06/12 05:51:35;;;;;;;12.98;2.92;;;21.30;34.30;;;;;;5074163;28;20120;-84
2022/06/12 05:54:00;;;;;;;12.05;2.38;;;21.40;33.60;;;;;;5074268;28;20068;-84
2022/06/12 05:56:28;;;;;;;14.02;2.40;;;21.40;34.40;;;;;;5074312;28;20131;-84
2022/06/12 05:58:55;;;;;;;11.63;3.03;;;22.00;27.70;;;;;;5074495;28;20170;-85
2022/06/12 06:01:22;;;;;;;13.13;2.45;;;22.00;24.90;;;;;;5073850;28;20179;-85
2022/06/12 06:03:48;;;;;;;11.20;3.60;;;22.30;22.80;;;;;;5055688;28;20162;-84
2022/06/12 06:06:37;;;;;;;12.75;3.28;;;22.50;20.00;;;;;;5073620;28;20057;-84
2022/06/12 06:09:05;;;;;;;16.42;2.72;;;22.80;18.00;;;;;;5074162;28;20052;-85
2022/06/12 06:11:31;;;;;;;11.70;2.90;;;23.10;15.10;;;;;;5074194;28;20048;-85
2022/06/12 06:13:56;;;;;;;15.15;3.40;;;23.30;12.30;;;;;;5074140;28;20053;-85
2022/06/12 06:16:23;;;;;;;16.88;3.25;;;23.10;12.60;;;;;;5073759;28;20047;-85
2022/06/12 06:18:49;;;;;;;14.85;3.88;;;23.00;11.10;;;;;;5056286;28;20393;-85
2022/06/12 06:21:15;;;;;;;15.77;3.55;;;22.90;13.20;;;;;;5073991;28;20062;-84
2022/06/12 06:23:42;;;;;;;16.50;3.03;;;23.20;15.60;;;;;;5074178;28;20088;-85
2022/06/12 06:26:09;;;;;;;17.42;4.30;;;23.80;13.20;;;;;;5081880;28;20035;-86
2022/06/12 06:28:35;;;;;;;23.38;4.25;;;23.90;10.00;;;;;;5093890;28;20036;-85
2022/06/12 06:31:01;;;;;;;19.33;3.78;;;24.00;5.50;;;;;;5094036;28;20048;-85
2022/06/12 06:33:27;;;;;;;21.85;4.28;;;23.90;3.70;;;;;;5076041;28;20048;-85
2022/06/12 06:35:53;;;;;;;16.20;4.20;;;24.40;1.30;;;;;;5093704;28;21061;-85
2022/06/12 06:38:19;;;;;;;13.00;3.33;;;24.00;1.80;;;;;;5093563;28;20337;-85
2022/06/12 06:40:46;;;;;;;16.23;3.85;;;24.20;1.00;;;;;;5093902;28;20044;-85
2022/06/12 06:43:11;;;;;;;14.05;3.80;;;24.30;1.00;;;;;;5076181;28;20051;-85
2022/06/12 06:48:23;;;;;;;17.53;3.43;;;24.60;1.00;;;;;;5094050;28;20127;-85
2022/06/12 06:50:50;;;;;;;24.08;4.40;;;24.80;1.00;;;;;;5093722;28;20115;-85
2022/06/12 06:53:16;;;;;;;16.95;3.97;;;25.30;1.00;;;;;;5093465;28;20043;-85
2022/06/12 06:55:43;;;;;;;20.90;4.10;;;25.30;1.00;;;;;;5093808;28;20170;-85
2022/06/12 06:58:11;;;;;;;18.60;4.28;;;26.00;1.00;;;;;;5075761;28;20483;-84
2022/06/12 07:00:38;;;;;;;15.15;3.63;;;25.90;1.00;;;;;;5093926;28;20048;-85
2022/06/12 07:03:05;;;;;;;14.57;3.05;;;26.30;1.00;;;;;;5093908;28;20037;-85
2022/06/12 07:05:30;;;;;;;17.30;3.78;;;26.40;1.00;;;;;;5093573;28;20052;-85
2022/06/12 07:07:56;;;;;;;14.85;4.47;;;26.90;1.00;;;;;;5093981;28;20050;-85
2022/06/12 07:10:24;;;;;;;12.40;3.13;;;26.60;1.00;;;;;;5093970;28;20052;-84
2022/06/12 07:12:51;;;;;;;18.40;4.50;;;26.80;1.00;;;;;;5093819;28;20492;-85
2022/06/12 07:15:18;;;;;;;14.93;3.22;;;27.00;1.00;;;;;;5075743;28;20040;-84
2022/06/12 07:17:45;;;;;;;15.55;3.90;;;27.30;1.00;;;;;;5097802;28;20055;-85
2022/06/12 07:20:13;;;;;;;16.63;3.38;;;27.20;1.00;;;;;;5097545;28;20489;-84
2022/06/12 07:22:39;;;;;;;16.50;3.55;;;27.00;1.00;;;;;;5097854;28;20118;-85
2022/06/12 07:25:06;;;;;;;12.90;3.63;;;27.00;1.00;;;;;;5097734;28;20507;-84
2022/06/12 07:27:31;;;;;;;16.92;3.45;;;27.20;1.00;;;;;;5097043;28;20059;-84
2022/06/12 07:29:57;;;;;;;14.15;2.83;;;27.30;1.00;;;;;;5097663;28;20036;-84
2022/06/12 07:32:23;;;;;;;15.18;3.65;;;27.30;1.00;;;;;;5097658;28;20059;-85
2022/06/12 07:34:50;;;;;;;12.45;3.58;;;27.60;1.00;;;;;;5078827;28;20058;-85
2022/06/12 07:37:15;;;;;;;16.88;4.53;;;27.90;1.00;;;;;;5097453;28;20089;-85
2022/06/12 07:39:41;;;;;;;14.73;4.35;;;27.90;1.00;;;;;;5098838;28;20124;-84
2022/06/12 07:42:07;;;;;;;20.40;4.22;;;28.20;1.00;;;;;;5097271;28;20043;-84
2022/06/12 07:44:35;;;;;;;14.25;3.45;;;28.20;1.00;;;;;;5097126;28;20079;-85
2022/06/12 07:47:01;;;;;;;13.13;3.70;;;28.30;1.00;;;;;;5097241;28;20054;-82
2022/06/12 07:49:29;;;;;;;12.52;2.90;;;28.70;1.00;;;;;;5096581;28;20058;-79
2022/06/12 07:51:56;;;;;;;17.40;4.07;;;28.60;1.00;;;;;;5078936;28;20054;-80
2022/06/12 07:54:23;;;;;;;13.60;3.72;;;28.70;1.00;;;;;;5097393;28;20048;-82
2022/06/12 07:56:49;;;;;;;12.27;3.05;;;28.70;1.00;;;;;;5097028;28;20101;-83
2022/06/12 07:59:15;;;;;;;11.60;2.92;;;28.70;1.00;;;;;;5098615;28;20040;-87
2022/06/12 08:01:42;;;;;;;12.60;3.25;;;29.10;1.00;;;;;;5097923;28;20090;-86
2022/06/12 08:04:09;;;;;;;13.63;3.25;;;29.00;1.00;;;;;;5098213;28;20059;-88
2022/06/12 08:06:35;;;;;;;16.15;3.55;;;28.90;1.00;;;;;;5094872;28;20075;-87
2022/06/12 08:09:05;;;;;;;11.32;3.15;;;29.00;1.00;;;;;;5097304;28;20032;-87
2022/06/12 08:11:32;;;;;;;11.70;2.97;;;29.00;1.00;;;;;;5096906;28;20058;-87
2022/06/12 08:13:58;;;;;;;14.73;3.97;;;28.80;1.00;;;;;;5098038;28;20047;-88
2022/06/12 08:16:24;;;;;;;11.73;3.25;;;28.70;1.00;;;;;;5079338;28;20044;-88
2022/06/12 08:18:50;;;;;;;13.57;3.13;;;28.70;1.00;;;;;;5080721;28;20055;-90
2022/06/12 08:21:17;;;;;;;12.80;3.22;;;28.40;1.00;;;;;;5097083;28;20040;-89
2022/06/12 08:23:50;;;;;;;16.63;3.97;;;27.80;1.00;;;;;;5097968;28;20044;-86
2022/06/12 08:26:26;;;;;;;13.75;3.88;;;28.20;1.00;;;;;;5096970;28;20191;-89
2022/06/12 08:29:00;;;;;;;13.98;3.17;;;28.80;1.00;;;;;;5096161;28;20080;-88
2022/06/12 08:31:30;;;;;;;12.48;2.95;;;29.00;1.00;;;;;;5096476;28;20362;-87
2022/06/12 08:34:00;;;;;;;11.25;2.85;;;28.80;1.00;;;;;;5096800;28;20052;-87
2022/06/12 08:36:27;;;;;;;16.73;3.10;;;29.00;1.00;;;;;;5096162;28;20040;-88
2022/06/12 08:38:53;;;;;;;12.65;3.50;;;29.40;1.00;;;;;;5096923;28;20415;-88
2022/06/12 08:41:23;;;;;;;13.98;3.28;;;29.40;1.00;;;;;;5096369;28;20115;-86
2022/06/12 08:44:47;;;;;;;11.75;3.00;;;29.50;1.00;;;;;;5097039;28;20059;-85
2022/06/12 08:47:31;;;;;;;13.68;3.15;;;29.10;1.00;;;;;;5062439;28;20066;-90
2022/06/12 08:50:32;;;;;;;15.80;4.75;;;29.00;1.00;;;;;;5096980;28;20040;-88
2022/06/12 08:53:32;;;;;;;8.90;2.75;;;28.50;1.00;;;;;;5053065;28;20108;-87
2022/06/12 08:55:58;;;;;;;10.48;3.17;;;28.90;1.00;;;;;;5087026;28;20048;-89
2022/06/12 08:58:29;;;;;;;10.80;2.47;;;28.80;1.00;;;;;;5095994;28;20044;-86
2022/06/12 09:00:55;;;;;;;9.27;2.60;;;27.70;1.00;;;;;;5095601;28;20040;-85
2022/06/12 09:03:27;;;;;;;12.55;2.97;;;27.00;1.00;;;;;;5083280;28;20039;-87
2022/06/12 09:06:09;;;;;;;12.85;3.95;;;26.00;1.00;;;;;;5084817;28;20056;-89
2022/06/12 09:08:40;;;;;;;12.32;3.28;;;25.50;1.00;;;;;;5083503;28;20049;-88
2022/06/12 09:11:31;;;;;;;20.40;4.03;;;25.20;1.00;;;;;;5077960;28;20381;-88
2022/06/12 09:14:34;;;;;;;13.15;3.47;;;24.90;1.00;;;;;;5057573;28;20040;-87
2022/06/12 09:17:09;;;;;;;11.63;2.78;;;24.70;1.00;;;;;;5075164;28;20109;-87
2022/06/12 09:19:44;;;;;;;10.98;2.97;;;26.10;1.00;;;;;;5074863;28;20510;-89
2022/06/12 09:22:33;;;;;;;13.25;3.03;;;26.40;1.00;;;;;;5074948;28;20485;-89
2022/06/12 09:25:26;;;;;;;11.40;2.65;;;26.10;1.00;;;;;;5075062;28;20044;-89
2022/06/12 09:28:05;;;;;;;16.65;3.38;;;26.60;1.00;;;;;;5057113;28;20501;-88
2022/06/12 09:30:39;;;;;;;9.30;2.50;;;27.10;1.00;;;;;;5074924;28;20123;-89
2022/06/12 09:33:32;;;;;;;13.95;3.65;;;26.70;1.00;;;;;;5077002;28;20052;-89
2022/06/12 09:36:27;;;;;;;9.88;2.42;;;26.00;1.00;;;;;;5075494;28;20382;-89
2022/06/12 09:39:06;;;;;;;13.93;2.55;;;27.10;1.00;;;;;;5076459;28;20040;-87
2022/06/12 09:42:06;;;;;;;8.02;1.98;;;27.80;1.00;;;;;;5077808;28;20465;-89
2022/06/12 09:44:35;;;;;;;14.60;3.00;;;28.20;1.00;;;;;;5083078;28;20044;-86
2022/06/12 09:47:17;;;;;;;14.00;2.97;;;28.40;1.00;;;;;;5079351;28;20040;-84
2022/06/12 09:50:05;;;;;;;8.52;2.33;;;28.60;1.00;;;;;;5076908;28;20072;-84
2022/06/12 09:52:55;;;;;;;12.85;2.33;;;28.90;1.00;;;;;;5077647;28;20052;-84
2022/06/12 09:55:44;;;;;;;8.93;2.95;;;28.50;1.00;;;;;;5078239;28;20407;-86
2022/06/12 09:58:20;;;;;;;10.20;2.40;;;27.60;1.00;;;;;;5073423;28;20066;-85
2022/06/12 10:00:53;;;;;;;8.02;2.20;;;27.20;1.00;;;;;;5098077;28;20048;-83
2022/06/12 10:03:47;;;;;;;9.05;2.35;;;26.90;1.00;;;;;;5097504;28;20127;-85
2022/06/12 10:06:24;;;;;;;10.90;2.83;;;26.80;1.00;;;;;;5097088;28;20064;-84
2022/06/12 10:09:11;;;;;;;14.73;2.38;;;26.90;1.00;;;;;;5097628;28;20076;-85
2022/06/12 10:11:43;;;;;;;12.18;2.47;;;26.80;1.00;;;;;;5097209;28;20044;-83
2022/06/12 10:14:18;;;;;;;9.85;2.85;;;26.20;1.00;;;;;;5066802;28;20087;-85
2022/06/12 10:17:01;;;;;;;9.48;2.10;;;25.80;1.00;;;;;;5077188;28;20040;-85
2022/06/12 10:19:48;;;;;;;8.05;2.30;;;25.20;1.00;;;;;;5077118;28;20139;-84
2022/06/12 10:22:43;;;;;;;7.63;1.70;;;24.90;1.00;;;;;;5077607;28;20057;-87
2022/06/12 10:25:35;;;;;;;8.43;1.77;;;24.70;1.00;;;;;;5077275;28;20501;-87
2022/06/12 10:28:03;;;;;;;8.88;2.00;;;24.30;1.00;;;;;;5078783;28;20116;-88
2022/06/12 10:30:45;;;;;;;5.47;1.80;;;24.00;1.00;;;;;;5078238;28;20036;-86
2022/06/12 10:33:32;;;;;;;6.72;1.70;;;24.10;1.00;;;;;;5078181;28;20040;-86
2022/06/12 10:36:00;;;;;;;6.45;1.60;;;24.50;1.00;;;;;;5089271;28;20048;-85
2022/06/12 10:38:33;;;;;;;7.32;1.92;;;24.70;1.00;;;;;;5085200;28;20051;-85
2022/06/12 10:41:05;;;;;;;6.63;1.67;;;25.20;1.00;;;;;;5078789;28;20055;-84
2022/06/12 10:43:32;;;;;;;6.65;1.65;;;25.50;1.00;;;;;;5078197;28;20051;-86
2022/06/12 10:46:05;;;;;;;4.65;1.60;;;25.80;1.00;;;;;;5078662;28;20049;-86
2022/06/12 10:48:35;;;;;;;5.47;1.63;;;25.60;1.00;;;;;;5079376;28;20060;-83
2022/06/12 10:51:06;;;;;;;5.93;1.73;;;25.50;1.00;;;;;;5078918;28;20055;-82
2022/06/12 10:53:34;;;;;;;3.00;1.20;;;25.40;1.00;;;;;;5086029;28;20048;-82
2022/06/12 10:56:24;;;;;;;4.32;1.42;;;25.20;1.00;;;;;;5099003;28;20047;-83
2022/06/12 10:59:00;;;;;;;4.20;1.20;;;25.20;1.00;;;;;;5097193;28;20040;-82
2022/06/12 11:01:47;;;;;;;4.20;1.42;;;25.70;1.00;;;;;;5097498;28;20457;-82
2022/06/12 11:04:33;;;;;;;5.68;1.35;;;25.20;1.00;;;;;;5096831;28;20047;-83
2022/06/12 11:07:16;;;;;;;3.92;1.80;;;25.50;1.00;;;;;;5080291;28;20404;-82
2022/06/12 11:10:05;;;;;;;6.57;1.48;;;25.50;1.00;;;;;;5081902;28;20048;-83
2022/06/12 11:12:42;;;;;;;4.38;1.42;;;25.20;1.00;;;;;;5096940;28;20044;-83
2022/06/12 11:15:10;;;;;;;6.78;1.80;;;25.60;1.00;;;;;;5078353;28;20146;-83
2022/06/12 11:17:40;;;;;;;6.15;1.52;;;25.80;1.00;;;;;;5067775;28;20093;-82
2022/06/12 11:20:24;;;;;;;5.43;1.45;;;27.00;1.00;;;;;;5096473;28;20044;-82
2022/06/12 11:23:19;;;;;;;15.93;2.83;;;27.10;1.00;;;;;;5097371;28;20393;-83
2022/06/12 11:26:20;;;;;;;9.05;1.80;;;28.00;1.00;;;;;;5085297;28;20049;-82
2022/06/12 11:29:24;;;;;;;4.82;1.75;;;27.70;1.00;;;;;;5064511;28;20118;-82
2022/06/12 11:32:20;;;;;;;4.50;1.23;;;26.90;1.00;;;;;;5076267;28;20037;-82
2022/06/12 11:35:10;;;;;;;6.87;1.47;;;26.00;1.00;;;;;;5076070;28;20044;-82
2022/06/12 11:37:46;;;;;;;6.55;1.77;;;25.00;1.00;;;;;;5085104;28;20048;-82
2022/06/12 11:40:39;;;;;;;5.65;1.70;;;24.50;1.00;;;;;;5096253;28;20048;-82
2022/06/12 11:43:25;;;;;;;5.32;1.60;;;25.40;1.00;;;;;;5096937;28;20119;-83
2022/06/12 11:46:16;;;;;;;4.78;1.48;;;26.00;1.00;;;;;;5096182;28;20048;-83
2022/06/12 11:49:04;;;;;;;5.85;1.80;;;26.80;1.00;;;;;;5095603;28;20054;-83
2022/06/12 11:51:54;;;;;;;7.47;2.08;;;27.30;1.00;;;;;;5096437;28;20044;-82
2022/06/12 11:54:34;;;;;;;8.45;1.92;;;27.80;1.00;;;;;;5096634;28;20048;-83
2022/06/12 11:57:19;;;;;;;8.40;1.83;;;27.40;1.00;;;;;;5093708;28;20143;-83
2022/06/12 12:00:22;;;;;;;7.30;2.05;;;26.40;1.00;;;;;;5084854;28;20121;-82
2022/06/12 12:03:16;;;;;;;7.55;1.80;;;25.50;1.00;;;;;;5094913;28;20048;-82
2022/06/12 12:05:49;;;;;;;7.35;2.08;;;25.90;1.00;;;;;;5096250;28;20052;-82
2022/06/12 12:08:46;;;;;;;6.97;1.90;;;26.80;1.00;;;;;;5068333;28;20051;-83
2022/06/12 12:11:17;;;;;;;7.60;1.63;;;27.30;1.00;;;;;;5075197;28;20473;-81
2022/06/12 12:13:51;;;;;;;7.55;1.95;;;28.20;1.00;;;;;;5075467;28;20045;-83
2022/06/12 12:16:19;;;;;;;6.50;1.83;;;28.50;1.00;;;;;;5076194;28;20045;-82
2022/06/12 12:18:50;;;;;;;8.40;2.00;;;27.90;1.00;;;;;;5076461;28;20049;-83
2022/06/12 12:21:34;;;;;;;6.03;1.88;;;27.70;1.00;;;;;;5096055;28;20099;-83
2022/06/12 12:24:01;;;;;;;7.97;1.50;;;27.60;1.00;;;;;;5095884;28;20122;-83
2022/06/12 12:26:38;;;;;;;7.00;2.50;;;28.10;1.00;;;;;;5095936;28;20040;-83
2022/06/12 12:29:16;;;;;;;6.93;2.05;;;29.30;1.00;;;;;;5078211;28;20493;-82
2022/06/12 12:31:44;;;;;;;8.27;1.90;;;29.90;1.00;;;;;;5057138;28;20502;-83
2022/06/12 12:34:10;;;;;;;9.68;1.98;;;29.00;1.00;;;;;;5074920;28;20045;-83
2022/06/12 12:42:39;;;;;;;8.98;1.75;;;27.00;1.00;;;;;;5074596;28;20048;-82
2022/06/12 12:45:23;;;;;;;7.90;2.25;;;26.30;1.00;;;;;;5070133;28;20060;-82
2022/06/12 12:48:04;;;;;;;4.90;1.30;;;26.50;1.00;;;;;;5075201;28;20048;-83
2022/06/12 12:50:51;;;;;;;5.97;1.60;;;27.10;1.00;;;;;;5075010;28;20049;-83
2022/06/12 12:53:31;;;;;;;6.13;1.33;;;27.70;1.00;;;;;;5074758;28;20116;-82
2022/06/12 12:56:08;;;;;;;5.78;1.30;;;27.50;1.00;;;;;;5074375;28;20048;-82
2022/06/12 12:58:54;;;;;;;6.50;1.60;;;27.00;1.00;;;;;;5075555;28;20089;-82
2022/06/12 13:01:38;;;;;;;5.13;1.42;;;26.60;1.00;;;;;;5091397;28;20181;-82
2022/06/12 13:04:22;;;;;;;4.78;1.90;;;25.80;1.00;;;;;;5094712;28;20456;-82
2022/06/12 13:07:05;;;;;;;6.15;1.48;;;25.30;1.00;;;;;;5091791;28;20101;-83
2022/06/12 13:09:44;;;;;;;8.00;1.42;;;25.10;1.00;;;;;;5074612;28;20047;-82
2022/06/12 13:12:28;;;;;;;4.97;1.48;;;26.40;1.00;;;;;;5039510;28;20052;-82
2022/06/12 13:15:12;;;;;;;4.93;1.40;;;26.50;1.00;;;;;;5073771;28;20094;-82
2022/06/12 13:17:53;;;;;;;6.75;1.73;;;26.40;1.00;;;;;;5074427;28;20072;-83
2022/06/12 13:20:52;;;;;;;5.47;1.52;;;25.80;1.00;;;;;;5073853;28;20037;-82
2022/06/12 13:23:37;;;;;;;6.97;1.90;;;26.40;1.00;;;;;;5072668;28;20460;-82
2022/06/12 13:26:07;;;;;;;7.13;1.42;;;27.10;1.00;;;;;;5056121;28;20397;-82
2022/06/12 13:28:35;;;;;;;7.25;1.70;;;26.50;1.00;;;;;;5088930;28;20080;-82
2022/06/12 13:31:03;;;;;;;6.80;1.75;;;26.80;1.00;;;;;;5094254;28;20096;-82
2022/06/12 13:33:32;;;;;;;8.63;1.40;;;26.90;1.00;;;;;;5094065;28;20119;-82
2022/06/12 13:36:06;;;;;;;6.07;1.30;;;26.00;1.00;;;;;;5093893;28;20381;-82
2022/06/12 13:38:45;;;;;;;6.95;1.73;;;25.60;1.00;;;;;;5078755;28;20059;-82
2022/06/12 13:41:39;;;;;;;7.85;1.50;;;25.00;1.00;;;;;;5073449;28;20413;-82
2022/06/12 13:44:27;;;;;;;5.68;1.23;;;25.10;1.00;;;;;;5073489;28;20044;-83
2022/06/12 13:46:54;;;;;;;7.32;1.60;;;26.70;1.00;;;;;;5073913;28;20045;-83